createdAt,value
2022-08-02T00:00:50.660Z,1.30
2022-08-02T00:03:42.546Z,1.15
2022-08-02T00:06:30.496Z,1.30
2022-08-02T00:12:08.980Z,1.10
2022-08-02T00:17:42.701Z,1.13
2022-08-02T00:20:29.586Z,1.10
2022-08-02T00:23:16.451Z,1.10
2022-08-02T00:26:03.377Z,1.30
2022-08-02T00:28:50.200Z,1.20
2022-08-02T00:31:36.995Z,1.10
2022-08-02T00:34:29.839Z,1.17
2022-08-02T00:37:18.779Z,1.23
2022-08-02T00:40:06.185Z,0.90
2022-08-02T00:43:09.320Z,1.00
2022-08-02T00:46:02.314Z,1.10
2022-08-02T00:48:50.767Z,1.17
2022-08-02T00:51:38.580Z,1.00
2022-08-02T00:57:12.089Z,1.20
2022-08-02T00:59:58.988Z,1.23
2022-08-02T01:02:46.134Z,1.23
2022-08-02T01:05:42.864Z,1.10
2022-08-02T01:08:40.167Z,1.00
2022-08-02T01:11:27.687Z,1.15
2022-08-02T01:14:15.816Z,1.10
2022-08-02T01:17:16.455Z,1.10
2022-08-02T01:20:12.126Z,1.08
2022-08-02T01:23:22.136Z,1.10
2022-08-02T01:26:24.224Z,1.10
2022-08-02T01:29:39.930Z,1.20
2022-08-02T01:32:31.589Z,1.30
2022-08-02T01:35:25.044Z,1.23
2022-08-02T01:38:25.987Z,1.10
2022-08-02T01:41:18.080Z,1.20
2022-08-02T01:44:06.280Z,1.25
2022-08-02T01:46:55.982Z,1.17
2022-08-02T01:49:46.734Z,1.20
2022-08-02T01:52:37.489Z,1.13
2022-08-02T01:55:58.422Z,1.20
2022-08-02T01:58:43.715Z,1.30
2022-08-02T02:01:35.615Z,0.98
2022-08-02T02:04:23.646Z,1.10
2022-08-02T02:07:12.921Z,1.00
2022-08-02T02:10:02.807Z,1.13
2022-08-02T02:12:51.264Z,1.25
2022-08-02T02:15:44.717Z,1.20
2022-08-02T02:18:39.084Z,1.10
2022-08-02T02:21:25.911Z,1.33
2022-08-02T02:24:13.351Z,1.10
2022-08-02T02:27:02.013Z,1.33
2022-08-02T02:29:52.113Z,1.20
2022-08-02T02:32:41.805Z,0.90
2022-08-02T02:35:32.303Z,1.13
2022-08-02T02:38:21.372Z,1.00
2022-08-02T02:41:08.660Z,1.10
2022-08-02T02:44:01.253Z,0.95
2022-08-02T02:46:51.466Z,0.90
2022-08-02T02:49:39.696Z,0.95
2022-08-02T02:52:27.168Z,1.08
2022-08-02T02:55:15.128Z,1.00
2022-08-02T02:58:02.906Z,1.10
2022-08-02T03:01:08.704Z,1.00
2022-08-02T03:03:56.074Z,1.00
2022-08-02T03:06:42.910Z,0.95
2022-08-02T03:09:29.733Z,0.80
2022-08-02T03:12:20.018Z,1.00
2022-08-02T03:15:08.334Z,1.05
2022-08-02T03:17:55.167Z,1.00
2022-08-02T03:20:41.976Z,0.90
2022-08-02T03:23:29.255Z,0.80
2022-08-02T03:26:16.448Z,0.90
2022-08-02T03:29:09.759Z,0.90
2022-08-02T03:31:58.004Z,0.85
2022-08-02T03:34:44.903Z,0.90
2022-08-02T03:37:32.941Z,0.90
2022-08-02T03:40:20.447Z,0.90
2022-08-02T03:43:08.696Z,0.80
2022-08-02T03:45:57.092Z,0.82
2022-08-02T03:48:44.545Z,0.77
2022-08-02T03:51:31.694Z,0.80
2022-08-02T03:54:19.331Z,0.85
2022-08-02T03:57:09.937Z,0.85
2022-08-02T03:59:56.902Z,0.98
2022-08-02T04:02:43.683Z,1.23
2022-08-02T04:05:30.653Z,1.02
2022-08-02T04:08:35.856Z,1.00
2022-08-02T04:11:33.186Z,0.98
2022-08-02T04:14:20.513Z,0.93
2022-08-02T04:17:09.780Z,1.00
2022-08-02T04:20:02.111Z,1.10
2022-08-02T04:23:15.856Z,1.00
2022-08-02T04:26:04.507Z,1.20
2022-08-02T04:28:56.476Z,1.10
2022-08-02T04:31:44.078Z,1.00
2022-08-02T04:34:30.986Z,1.20
2022-08-02T04:37:17.813Z,1.10
2022-08-02T04:40:15.507Z,1.30
2022-08-02T04:43:02.375Z,1.40
2022-08-02T04:45:52.912Z,1.25
2022-08-02T04:48:39.816Z,1.20
2022-08-02T04:51:38.523Z,1.40
2022-08-02T04:54:25.973Z,1.38
2022-08-02T04:57:31.717Z,1.08
2022-08-02T05:00:18.584Z,1.20
2022-08-02T05:03:05.908Z,1.20
2022-08-02T05:05:52.683Z,1.10
2022-08-02T05:08:39.876Z,1.10
2022-08-02T05:11:36.598Z,1.27
2022-08-02T05:14:24.270Z,1.20
2022-08-02T05:17:11.083Z,1.40
2022-08-02T05:19:57.950Z,1.25
2022-08-02T05:22:45.152Z,1.23
2022-08-02T05:25:31.989Z,1.10
2022-08-02T05:28:18.879Z,1.20
2022-08-02T05:31:06.332Z,1.00
2022-08-02T05:34:00.005Z,1.10
2022-08-02T05:36:46.849Z,1.30
2022-08-02T05:39:34.810Z,1.23
2022-08-02T05:42:24.086Z,0.98
2022-08-02T05:45:11.333Z,1.10
2022-08-02T05:47:58.145Z,0.95
2022-08-02T05:50:51.213Z,0.90
2022-08-02T05:53:51.981Z,0.90
2022-08-02T05:57:04.788Z,1.02
2022-08-02T06:00:03.122Z,0.82
2022-08-02T06:03:16.998Z,1.00
2022-08-02T06:06:12.983Z,1.02
2022-08-02T06:09:03.952Z,1.08
2022-08-02T06:12:01.627Z,0.90
2022-08-02T06:14:54.439Z,1.20
2022-08-02T06:17:45.622Z,1.05
2022-08-02T06:20:35.658Z,1.13
2022-08-02T06:23:23.926Z,1.00
2022-08-02T06:26:13.285Z,1.20
2022-08-02T06:29:00.365Z,1.05
2022-08-02T06:31:47.879Z,1.00
2022-08-02T06:34:40.886Z,1.00
2022-08-02T06:37:58.882Z,1.10
2022-08-02T06:40:57.355Z,1.27
2022-08-02T06:47:10.071Z,1.20
2022-08-02T06:49:51.544Z,1.10
2022-08-02T06:52:41.629Z,1.30
2022-08-02T06:55:29.611Z,1.20
2022-08-02T06:58:16.394Z,1.10
2022-08-02T07:01:07.177Z,1.20
2022-08-02T07:03:54.023Z,1.15
2022-08-02T07:06:42.427Z,1.00
2022-08-02T07:09:29.225Z,1.10
2022-08-02T07:12:16.037Z,0.90
2022-08-02T07:15:05.786Z,0.90
2022-08-02T07:17:52.629Z,0.95
2022-08-02T07:20:39.413Z,0.83
2022-08-02T07:23:26.148Z,0.80
2022-08-02T07:26:12.966Z,0.97
2022-08-02T07:28:59.720Z,1.00
2022-08-02T07:31:46.513Z,0.87
2022-08-02T07:34:33.348Z,1.00
2022-08-02T07:37:35.445Z,1.00
2022-08-02T07:43:15.769Z,0.90
2022-08-02T07:46:03.535Z,1.00
2022-08-02T07:48:53.414Z,1.02
2022-08-02T07:51:40.246Z,1.00
2022-08-02T07:54:27.076Z,1.27
2022-08-02T07:57:14.075Z,1.70
2022-08-02T08:00:00.899Z,1.70
2022-08-02T08:02:47.799Z,1.60
2022-08-02T08:05:34.627Z,1.92
2022-08-02T08:08:21.457Z,1.73
2022-08-02T08:11:08.318Z,2.27
2022-08-02T08:13:55.336Z,2.13
2022-08-02T08:16:42.228Z,2.20
2022-08-02T08:19:49.961Z,1.90
2022-08-02T08:22:35.861Z,2.30
2022-08-02T08:25:22.693Z,2.47
2022-08-02T08:28:13.973Z,2.50
2022-08-02T08:31:00.708Z,2.20
2022-08-02T08:33:47.961Z,2.35
2022-08-02T08:36:34.808Z,3.20
2022-08-02T08:39:21.627Z,3.10
2022-08-02T08:42:09.542Z,2.77
2022-08-02T08:44:58.490Z,2.50
2022-08-02T08:48:00.532Z,2.92
2022-08-02T08:50:55.791Z,2.50
2022-08-02T08:53:44.122Z,3.15
2022-08-02T08:56:35.317Z,2.60
2022-08-02T08:59:22.141Z,2.97
2022-08-02T09:02:21.589Z,2.80
2022-08-02T09:05:12.847Z,2.50
2022-08-02T09:07:59.630Z,2.22
2022-08-02T09:10:48.437Z,2.33
2022-08-02T09:13:44.989Z,2.58
2022-08-02T09:16:40.038Z,2.75
2022-08-02T09:19:27.243Z,2.40
2022-08-02T09:22:16.073Z,2.30
2022-08-02T09:25:03.458Z,2.17
2022-08-02T09:27:50.487Z,1.92
2022-08-02T09:30:43.675Z,1.98
2022-08-02T09:33:30.703Z,2.00
2022-08-02T09:36:17.917Z,1.65
2022-08-02T09:39:06.486Z,1.83
2022-08-02T09:42:07.305Z,1.70
2022-08-02T09:44:59.305Z,1.75
2022-08-02T09:47:49.291Z,1.70
2022-08-02T09:50:40.995Z,1.50
2022-08-02T09:53:27.771Z,2.10
2022-08-02T09:56:35.602Z,1.90
2022-08-02T09:59:25.102Z,1.60
2022-08-02T10:02:16.993Z,1.95
2022-08-02T10:05:05.404Z,1.50
2022-08-02T10:07:53.903Z,1.60
2022-08-02T10:10:41.704Z,1.60
2022-08-02T10:13:34.281Z,1.50
2022-08-02T10:16:23.667Z,1.30
2022-08-02T10:19:11.058Z,1.73
2022-08-02T10:22:04.874Z,1.55
2022-08-02T10:24:52.489Z,1.30
2022-08-02T10:28:02.902Z,1.48
2022-08-02T10:30:48.547Z,1.30
2022-08-02T10:33:38.357Z,1.63
2022-08-02T10:36:27.273Z,1.50
2022-08-02T10:39:14.355Z,1.33
2022-08-02T10:42:01.161Z,1.70
2022-08-02T10:44:47.992Z,2.17
2022-08-02T10:47:34.748Z,1.77
2022-08-02T10:50:21.594Z,1.92
2022-08-02T10:53:24.712Z,2.20
2022-08-02T10:56:11.688Z,2.40
2022-08-02T10:59:28.533Z,2.45
2022-08-02T11:02:34.298Z,2.30
2022-08-02T11:05:43.398Z,2.00
2022-08-02T11:08:31.073Z,1.70
2022-08-02T11:11:19.330Z,1.55
2022-08-02T11:14:26.731Z,1.80
2022-08-02T11:20:12.872Z,1.60
2022-08-02T11:23:44.398Z,1.60
2022-08-02T11:26:32.846Z,1.30
2022-08-02T11:29:20.451Z,1.30
2022-08-02T11:32:09.266Z,1.50
2022-08-02T11:34:57.770Z,1.55
2022-08-02T11:37:45.376Z,1.50
2022-08-02T11:40:38.088Z,1.40
2022-08-02T11:43:30.817Z,1.30
2022-08-02T11:46:17.540Z,1.30
2022-08-02T11:49:18.480Z,1.30
2022-08-02T11:52:08.068Z,1.17
2022-08-02T11:54:54.837Z,1.30
2022-08-02T11:58:03.448Z,1.20
2022-08-02T12:00:48.451Z,0.85
2022-08-02T12:03:39.625Z,1.17
2022-08-02T12:06:28.807Z,1.00
2022-08-02T12:09:18.705Z,0.85
2022-08-02T12:12:06.321Z,0.90
2022-08-02T12:14:53.097Z,0.68
2022-08-02T12:17:58.628Z,0.60
2022-08-02T12:20:45.837Z,0.65
2022-08-02T12:23:32.970Z,0.60
2022-08-02T12:26:19.796Z,0.52
2022-08-02T12:29:07.478Z,0.50
2022-08-02T12:31:57.593Z,0.50
2022-08-02T12:34:44.814Z,0.80
2022-08-02T12:37:31.776Z,0.60
2022-08-02T12:40:24.843Z,0.57
2022-08-02T12:43:24.069Z,0.52
2022-08-02T12:46:23.670Z,0.50
2022-08-02T12:49:19.160Z,0.50
2022-08-02T12:52:21.714Z,0.63
2022-08-02T12:56:01.956Z,0.60
2022-08-02T12:58:49.611Z,0.80
2022-08-02T13:01:36.986Z,0.70
2022-08-02T13:04:23.798Z,0.60
2022-08-02T13:07:12.257Z,0.75
2022-08-02T13:10:00.383Z,0.70
2022-08-02T13:12:51.113Z,0.68
2022-08-02T13:15:49.297Z,0.60
2022-08-02T13:18:37.447Z,0.52
2022-08-02T13:24:39.816Z,0.80
2022-08-02T13:27:39.092Z,0.73
2022-08-02T13:30:25.947Z,0.80
2022-08-02T13:33:12.912Z,0.80
2022-08-02T13:35:59.936Z,0.73
2022-08-02T13:38:46.702Z,1.00
2022-08-02T13:41:33.474Z,0.90
2022-08-02T13:44:20.390Z,1.10
2022-08-02T13:47:08.555Z,1.08
2022-08-02T13:49:55.445Z,0.90
2022-08-02T13:52:42.326Z,0.90
2022-08-02T13:55:29.432Z,0.85
2022-08-02T14:01:03.392Z,1.00
2022-08-02T14:04:08.626Z,1.02
2022-08-02T14:06:57.960Z,0.80
2022-08-02T14:09:46.083Z,1.02
2022-08-02T14:12:33.004Z,1.10
2022-08-02T14:15:20.087Z,0.90
2022-08-02T14:18:06.840Z,0.85
2022-08-02T14:20:53.730Z,0.80
2022-08-02T14:23:49.395Z,0.90
2022-08-02T14:26:37.900Z,0.90
2022-08-02T14:29:24.712Z,0.80
2022-08-02T14:32:11.961Z,0.80
2022-08-02T14:34:58.990Z,0.95
2022-08-02T14:37:45.737Z,1.00
2022-08-02T14:40:32.980Z,0.80
2022-08-02T14:46:25.124Z,0.88
2022-08-02T14:49:14.642Z,0.73
2022-08-02T14:52:13.407Z,0.80
2022-08-02T14:55:00.391Z,0.90
2022-08-02T14:57:47.191Z,0.90
2022-08-02T15:00:38.573Z,0.82
2022-08-02T15:03:29.665Z,0.80
2022-08-02T15:06:16.811Z,0.90
2022-08-02T15:09:03.823Z,1.00
2022-08-02T15:11:50.892Z,1.00
2022-08-02T15:14:38.702Z,0.98
2022-08-02T15:17:25.516Z,1.00
2022-08-02T15:20:25.611Z,0.90
2022-08-02T15:23:14.284Z,0.98
2022-08-02T15:26:01.236Z,0.80
2022-08-02T15:28:55.667Z,0.80
2022-08-02T15:31:42.843Z,0.90
2022-08-02T15:34:29.664Z,0.90
2022-08-02T15:37:16.708Z,0.90
2022-08-02T15:42:50.749Z,0.90
2022-08-02T15:45:37.655Z,0.70
2022-08-02T15:48:24.427Z,0.65
2022-08-02T15:51:11.508Z,0.73
2022-08-02T15:53:58.346Z,0.68
2022-08-02T15:56:45.348Z,0.70
2022-08-02T15:59:32.364Z,0.80
2022-08-02T16:02:20.217Z,0.68
2022-08-02T16:05:13.621Z,0.80
2022-08-02T16:08:01.043Z,0.77
2022-08-02T16:10:47.815Z,0.90
2022-08-02T16:13:52.586Z,0.98
2022-08-02T16:16:40.452Z,0.80
2022-08-02T16:22:34.204Z,0.93
2022-08-02T16:25:21.058Z,0.70
2022-08-02T16:28:08.322Z,0.65
2022-08-02T16:31:10.396Z,0.60
2022-08-02T16:33:58.745Z,0.70
2022-08-02T16:36:46.119Z,0.70
2022-08-02T16:39:32.960Z,0.68
2022-08-02T16:42:24.954Z,0.73
2022-08-02T16:45:14.233Z,0.95
2022-08-02T16:48:05.229Z,0.80
2022-08-02T16:50:52.726Z,0.65
2022-08-02T16:54:00.537Z,0.65
2022-08-02T16:56:47.915Z,0.80
2022-08-02T16:59:42.877Z,0.68
2022-08-02T17:02:31.238Z,0.80
2022-08-02T17:05:18.190Z,0.80
2022-08-02T17:08:17.299Z,0.70
2022-08-02T17:11:04.546Z,0.75
2022-08-02T17:13:51.774Z,0.60
2022-08-02T17:19:27.188Z,0.70
2022-08-02T17:22:14.389Z,0.70
2022-08-02T17:25:05.657Z,0.65
2022-08-02T17:27:58.047Z,0.60
2022-08-02T17:30:44.803Z,0.70
2022-08-02T17:33:31.947Z,0.60
2022-08-02T17:36:18.709Z,0.68
2022-08-02T17:39:07.887Z,0.65
2022-08-02T17:41:54.673Z,0.70
2022-08-02T17:44:42.376Z,0.80
2022-08-02T17:47:42.501Z,0.60
2022-08-02T17:50:29.527Z,0.70
2022-08-02T17:53:18.803Z,0.88
2022-08-02T17:56:05.580Z,0.70
2022-08-02T17:58:54.038Z,0.57
2022-08-02T18:01:52.868Z,0.75
2022-08-02T18:04:40.467Z,0.80
2022-08-02T18:07:40.697Z,0.82
2022-08-02T18:10:34.548Z,0.70
2022-08-02T18:16:20.864Z,0.70
2022-08-02T18:19:16.698Z,0.70
2022-08-02T18:22:06.452Z,0.65
2022-08-02T18:24:55.944Z,0.70
2022-08-02T18:27:42.909Z,0.63
2022-08-02T18:30:31.079Z,0.60
2022-08-02T18:33:55.501Z,0.55
2022-08-02T18:36:25.289Z,0.60
2022-08-02T18:39:12.149Z,0.70
2022-08-02T18:41:58.929Z,0.60
2022-08-02T18:44:49.086Z,0.70
2022-08-02T18:47:35.905Z,0.82
2022-08-02T18:50:22.746Z,0.80
2022-08-02T18:53:09.931Z,0.80
2022-08-02T18:56:03.156Z,0.77
2022-08-02T18:58:55.314Z,0.80
2022-08-02T19:01:50.792Z,0.70
2022-08-02T19:04:43.521Z,0.80
2022-08-02T19:07:49.841Z,0.90
2022-08-02T19:10:39.921Z,0.90
2022-08-02T19:13:40.727Z,0.93
2022-08-02T19:16:37.563Z,0.80
2022-08-02T19:19:28.984Z,0.80
2022-08-02T19:22:20.062Z,0.80
2022-08-02T19:25:14.149Z,0.80
2022-08-02T19:28:08.885Z,0.80
2022-08-02T19:31:02.517Z,0.70
2022-08-02T19:34:07.018Z,0.70
2022-08-02T19:36:54.768Z,0.80
2022-08-02T19:39:46.822Z,0.98
2022-08-02T19:42:55.647Z,0.90
2022-08-02T19:45:50.633Z,0.90
2022-08-02T19:48:48.927Z,0.80
2022-08-02T19:51:54.998Z,0.90
2022-08-02T19:54:56.083Z,0.80
2022-08-02T19:57:43.513Z,1.00
2022-08-02T20:00:34.886Z,0.70
2022-08-02T20:03:29.952Z,0.90
2022-08-02T20:06:29.894Z,0.80
2022-08-02T20:09:33.264Z,0.90
2022-08-02T20:12:25.909Z,0.88
2022-08-02T20:15:15.548Z,0.85
2022-08-02T20:18:08.779Z,0.80
2022-08-02T20:20:55.689Z,1.00
2022-08-02T20:23:45.118Z,0.90
2022-08-02T20:26:49.685Z,1.00
2022-08-02T20:29:48.446Z,1.10
2022-08-02T20:32:36.755Z,1.00
2022-08-02T20:35:27.738Z,0.90
2022-08-02T20:38:14.872Z,1.10
2022-08-02T20:41:05.815Z,0.90
2022-08-02T20:43:52.638Z,1.00
2022-08-02T20:46:41.731Z,1.00
2022-08-02T20:49:41.172Z,1.30
2022-08-02T20:52:34.593Z,1.02
2022-08-02T20:55:25.442Z,1.13
2022-08-02T20:58:13.677Z,1.27
2022-08-02T21:01:06.301Z,1.20
2022-08-02T21:03:59.784Z,1.23
2022-08-02T21:06:47.522Z,1.38
2022-08-02T21:09:53.849Z,1.40
2022-08-02T21:12:46.041Z,1.35
2022-08-02T21:15:36.278Z,1.27
2022-08-02T21:18:40.194Z,1.30
2022-08-02T21:21:32.996Z,1.20
2022-08-02T21:24:20.111Z,1.20
2022-08-02T21:27:51.818Z,1.30
2022-08-02T21:30:24.264Z,1.15
2022-08-02T21:33:29.504Z,1.20
2022-08-02T21:36:36.370Z,1.30
2022-08-02T21:39:23.684Z,1.42
2022-08-02T21:42:22.625Z,1.35
2022-08-02T21:45:17.342Z,1.13
2022-08-02T21:48:07.341Z,1.23
2022-08-02T21:50:57.504Z,1.30
2022-08-02T21:53:44.350Z,1.20
2022-08-02T21:56:55.032Z,1.30
2022-08-02T21:59:45.321Z,1.50
2022-08-02T22:02:42.650Z,1.20
2022-08-02T22:05:29.490Z,1.25
2022-08-02T22:08:29.615Z,1.50
2022-08-02T22:11:19.819Z,1.33
2022-08-02T22:14:08.545Z,1.40
2022-08-02T22:17:08.552Z,1.35
2022-08-02T22:20:08.094Z,1.30
2022-08-02T22:22:55.629Z,1.30
2022-08-02T22:25:42.658Z,1.42
2022-08-02T22:28:38.190Z,1.50
2022-08-02T22:31:41.360Z,1.38
2022-08-02T22:34:51.242Z,1.40
2022-08-02T22:38:16.657Z,1.55
2022-08-02T22:40:47.819Z,1.33
2022-08-02T22:43:34.664Z,1.40
2022-08-02T22:46:26.440Z,1.40
2022-08-02T22:49:36.996Z,1.50
2022-08-02T22:52:23.904Z,1.50
2022-08-02T22:55:10.841Z,1.30
2022-08-02T22:58:02.123Z,1.50
2022-08-02T23:00:53.858Z,1.30
2022-08-02T23:03:40.884Z,1.52
2022-08-02T23:06:27.684Z,1.55
2022-08-02T23:09:14.458Z,1.67
2022-08-02T23:12:01.329Z,1.50
2022-08-02T23:14:55.070Z,1.60
2022-08-02T23:18:00.432Z,1.50
2022-08-02T23:20:56.737Z,1.45
2022-08-02T23:23:43.538Z,1.40
2022-08-02T23:26:30.438Z,1.50
2022-08-02T23:29:20.203Z,1.40
2022-08-02T23:32:07.157Z,1.47
2022-08-02T23:34:55.715Z,1.50
2022-08-02T23:37:58.941Z,1.60
2022-08-02T23:40:47.988Z,1.50
2022-08-02T23:43:35.896Z,1.47
2022-08-02T23:46:24.520Z,1.40
2022-08-02T23:49:11.440Z,1.50
2022-08-02T23:52:01.699Z,1.80
2022-08-02T23:54:48.970Z,1.52
2022-08-02T23:57:35.736Z,1.90
